createdAt,value
2023-02-06T00:00:06.384Z,87.39
2023-02-06T00:01:06.387Z,87.70
2023-02-06T00:02:06.465Z,87.70
2023-02-06T00:03:06.361Z,87.60
2023-02-06T00:04:06.427Z,87.49
2023-02-06T00:05:06.331Z,87.60
2023-02-06T00:06:06.580Z,87.60
2023-02-06T00:07:06.305Z,88.01
2023-02-06T00:08:06.324Z,88.22
2023-02-06T00:09:06.285Z,87.60
2023-02-06T00:10:06.573Z,87.39
2023-02-06T00:11:06.268Z,87.54
2023-02-06T00:12:06.306Z,87.54
2023-02-06T00:13:06.236Z,87.74
2023-02-06T00:14:06.364Z,87.74
2023-02-06T00:15:06.216Z,87.54
2023-02-06T00:16:06.379Z,87.33
2023-02-06T00:17:06.203Z,87.02
2023-02-06T00:18:06.187Z,87.12
2023-02-06T00:19:06.176Z,87.02
2023-02-06T00:20:06.156Z,86.60
2023-02-06T00:21:06.150Z,86.50
2023-02-06T00:22:06.257Z,86.50
2023-02-06T00:23:06.128Z,86.60
2023-02-06T00:24:06.180Z,86.50
2023-02-06T00:25:06.127Z,86.60
2023-02-06T00:26:06.108Z,86.50
2023-02-06T00:27:06.088Z,86.60
2023-02-06T00:28:06.119Z,86.60
2023-02-06T00:29:06.093Z,86.29
2023-02-06T00:30:06.116Z,86.19
2023-02-06T00:31:06.177Z,86.09
2023-02-06T00:32:06.044Z,86.09
2023-02-06T00:33:06.021Z,86.19
2023-02-06T00:34:06.025Z,86.29
2023-02-06T00:35:06.004Z,86.33
2023-02-06T00:36:06.046Z,86.13
2023-02-06T00:37:05.993Z,86.65
2023-02-06T00:38:05.991Z,86.54
2023-02-06T00:39:05.969Z,86.54
2023-02-06T00:40:05.965Z,86.75
2023-02-06T00:41:05.948Z,86.96
2023-02-06T00:42:06.101Z,86.96
2023-02-06T00:43:05.921Z,87.16
2023-02-06T00:44:06.034Z,87.16
2023-02-06T00:45:05.897Z,87.16
2023-02-06T00:46:05.966Z,87.27
2023-02-06T00:47:05.874Z,87.20
2023-02-06T00:48:05.937Z,87.30
2023-02-06T00:49:05.865Z,87.41
2023-02-06T00:50:05.838Z,87.51
2023-02-06T00:51:05.840Z,87.62
2023-02-06T00:52:05.819Z,87.72
2023-02-06T00:53:05.826Z,87.82
2023-02-06T00:54:05.845Z,87.93
2023-02-06T00:55:05.806Z,87.93
2023-02-06T00:56:05.827Z,87.72
2023-02-06T00:57:05.760Z,87.82
2023-02-06T00:58:05.808Z,88.13
2023-02-06T00:59:05.748Z,88.24
2023-02-06T01:00:05.727Z,88.48
2023-02-06T01:01:05.727Z,88.69
2023-02-06T01:02:05.705Z,89.00
2023-02-06T01:03:05.726Z,89.11
2023-02-06T01:04:05.707Z,88.90
2023-02-06T01:05:05.690Z,88.90
2023-02-06T01:06:05.678Z,89.15
2023-02-06T01:07:05.644Z,89.46
2023-02-06T01:08:05.633Z,89.46
2023-02-06T01:09:05.652Z,89.36
2023-02-06T01:10:05.679Z,89.56
2023-02-06T01:11:05.615Z,89.77
2023-02-06T01:12:05.593Z,90.08
2023-02-06T01:13:05.605Z,90.44
2023-02-06T01:14:05.819Z,90.33
2023-02-06T01:15:05.580Z,90.64
2023-02-06T01:16:05.625Z,90.85
2023-02-06T01:17:05.563Z,90.85
2023-02-06T01:18:05.551Z,91.06
2023-02-06T01:19:05.523Z,91.37
2023-02-06T01:20:05.543Z,91.47
2023-02-06T01:21:05.511Z,91.62
2023-02-06T01:22:05.531Z,91.41
2023-02-06T01:23:05.524Z,91.62
2023-02-06T01:24:05.473Z,91.52
2023-02-06T01:25:05.457Z,91.62
2023-02-06T01:26:05.450Z,91.62
2023-02-06T01:27:05.431Z,91.52
2023-02-06T01:28:05.445Z,91.55
2023-02-06T01:29:05.478Z,91.55
2023-02-06T01:30:05.403Z,91.66
2023-02-06T01:31:05.482Z,91.76
2023-02-06T01:32:05.413Z,91.76
2023-02-06T01:33:05.360Z,91.76
2023-02-06T01:34:05.360Z,91.76
2023-02-06T01:35:05.341Z,91.80
2023-02-06T01:36:05.333Z,91.80
2023-02-06T01:37:05.321Z,91.70
2023-02-06T01:38:05.319Z,91.80
2023-02-06T01:39:05.381Z,92.11
2023-02-06T01:40:05.281Z,92.32
2023-02-06T01:41:05.286Z,92.43
2023-02-06T01:42:05.300Z,92.47
2023-02-06T01:43:05.256Z,92.47
2023-02-06T01:44:05.255Z,92.68
2023-02-06T01:45:05.241Z,92.78
2023-02-06T01:46:05.244Z,92.78
2023-02-06T01:47:05.223Z,92.68
2023-02-06T01:48:05.225Z,92.78
2023-02-06T01:49:07.011Z,92.88
2023-02-06T01:50:05.218Z,92.78
2023-02-06T01:51:05.163Z,92.99
2023-02-06T01:52:05.200Z,93.10
2023-02-06T01:53:05.140Z,93.03
2023-02-06T01:54:05.142Z,93.24
2023-02-06T01:55:05.177Z,93.49
2023-02-06T01:56:05.156Z,93.70
2023-02-06T01:57:05.093Z,93.70
2023-02-06T01:58:05.115Z,93.85
2023-02-06T01:59:05.107Z,93.95
2023-02-06T02:00:05.073Z,93.74
2023-02-06T02:01:05.193Z,93.64
2023-02-06T02:02:05.152Z,93.89
2023-02-06T02:03:05.032Z,93.99
2023-02-06T02:04:05.032Z,94.10
2023-02-06T02:05:05.010Z,94.10
2023-02-06T02:06:05.004Z,94.10
2023-02-06T02:07:04.983Z,94.14
2023-02-06T02:08:04.998Z,94.24
2023-02-06T02:09:04.991Z,94.35
2023-02-06T02:10:04.982Z,94.45
2023-02-06T02:11:04.965Z,94.76
2023-02-06T02:12:04.967Z,95.12
2023-02-06T02:13:04.931Z,95.33
2023-02-06T02:14:04.969Z,95.54
2023-02-06T02:15:04.909Z,95.75
2023-02-06T02:16:04.927Z,95.85
2023-02-06T02:17:04.887Z,95.85
2023-02-06T02:18:04.925Z,96.06
2023-02-06T02:19:04.878Z,96.06
2023-02-06T02:20:04.903Z,96.16
2023-02-06T02:21:04.842Z,96.21
2023-02-06T02:22:04.832Z,96.21
2023-02-06T02:23:04.820Z,96.21
2023-02-06T02:24:04.846Z,96.21
2023-02-06T02:25:04.809Z,96.11
2023-02-06T02:26:04.805Z,96.11
2023-02-06T02:27:04.786Z,96.31
2023-02-06T02:28:04.851Z,96.52
2023-02-06T02:29:04.779Z,96.62
2023-02-06T02:30:04.881Z,96.62
2023-02-06T02:31:04.742Z,96.67
2023-02-06T02:32:04.744Z,96.67
2023-02-06T02:33:04.726Z,96.67
2023-02-06T02:34:04.722Z,96.88
2023-02-06T02:35:04.694Z,96.98
2023-02-06T02:36:04.897Z,97.19
2023-02-06T02:37:04.672Z,97.19
2023-02-06T02:38:04.731Z,97.19
2023-02-06T02:39:04.678Z,97.09
2023-02-06T02:40:06.117Z,97.19
2023-02-06T02:41:04.638Z,97.30
2023-02-06T02:42:04.674Z,97.30
2023-02-06T02:43:04.619Z,97.34
2023-02-06T02:44:04.716Z,97.34
2023-02-06T02:45:04.650Z,97.34
2023-02-06T02:46:04.644Z,97.34
2023-02-06T02:47:04.571Z,97.34
2023-02-06T02:48:04.594Z,97.24
2023-02-06T02:49:04.564Z,97.17
2023-02-06T02:50:04.539Z,97.17
2023-02-06T02:51:04.564Z,97.28
2023-02-06T02:52:04.555Z,97.28
2023-02-06T02:53:04.501Z,97.38
2023-02-06T02:54:04.508Z,97.38
2023-02-06T02:55:04.479Z,97.49
2023-02-06T02:56:04.479Z,97.49
2023-02-06T02:57:04.457Z,97.59
2023-02-06T02:58:04.452Z,97.70
2023-02-06T02:59:04.466Z,97.74
2023-02-06T03:00:04.437Z,97.74
2023-02-06T03:01:04.434Z,97.74
2023-02-06T03:02:04.500Z,97.85
2023-02-06T03:03:04.412Z,97.95
2023-02-06T03:04:04.547Z,97.95
2023-02-06T03:05:04.373Z,98.05
2023-02-06T03:06:04.377Z,98.16
2023-02-06T03:07:04.378Z,98.26
2023-02-06T03:08:04.359Z,98.58
2023-02-06T03:09:04.332Z,98.68
2023-02-06T03:10:04.329Z,98.68
2023-02-06T03:11:04.306Z,98.79
2023-02-06T03:12:04.304Z,98.89
2023-02-06T03:13:04.286Z,98.99
2023-02-06T03:14:04.293Z,99.10
2023-02-06T03:15:04.290Z,99.20
2023-02-06T03:16:04.282Z,99.20
2023-02-06T03:17:04.252Z,99.20
2023-02-06T03:18:04.229Z,99.16
2023-02-06T03:19:04.235Z,99.26
2023-02-06T03:20:04.206Z,99.26
2023-02-06T03:21:04.218Z,99.26
2023-02-06T03:22:04.357Z,99.31
2023-02-06T03:23:04.204Z,99.31
2023-02-06T03:24:04.259Z,99.31
2023-02-06T03:25:04.158Z,99.31
2023-02-06T03:26:04.173Z,99.41
2023-02-06T03:27:04.159Z,99.41
2023-02-06T03:28:04.136Z,99.52
2023-02-06T03:29:04.148Z,99.52
2023-02-06T03:30:04.112Z,99.41
2023-02-06T03:31:04.098Z,99.31
2023-02-06T03:32:04.127Z,99.41
2023-02-06T03:33:04.078Z,99.41
2023-02-06T03:34:04.096Z,99.41
2023-02-06T03:35:04.059Z,99.41
2023-02-06T03:36:04.064Z,99.41
2023-02-06T03:37:04.036Z,99.41
2023-02-06T03:38:04.019Z,99.41
2023-02-06T03:39:04.049Z,99.41
2023-02-06T03:40:04.051Z,99.52
2023-02-06T03:41:03.990Z,99.62
2023-02-06T03:42:03.978Z,99.68
2023-02-06T03:43:03.977Z,99.68
2023-02-06T03:44:03.979Z,99.73
2023-02-06T03:45:03.969Z,99.83
2023-02-06T03:46:04.040Z,99.83
2023-02-06T03:47:03.939Z,99.89
2023-02-06T03:48:03.943Z,99.89
2023-02-06T03:49:03.900Z,99.89
2023-02-06T03:50:03.921Z,99.89
2023-02-06T03:51:03.888Z,99.99
2023-02-06T03:52:04.171Z,99.89
2023-02-06T03:53:03.869Z,99.89
2023-02-06T03:54:03.929Z,99.89
2023-02-06T03:55:03.852Z,99.89
2023-02-06T03:56:03.848Z,99.89
2023-02-06T03:57:03.831Z,99.89
2023-02-06T03:58:03.909Z,99.89
2023-02-06T03:59:03.804Z,99.79
2023-02-06T04:00:03.813Z,99.89
2023-02-06T04:01:03.792Z,99.89
2023-02-06T04:02:03.866Z,99.93
2023-02-06T04:03:03.765Z,99.93
2023-02-06T04:04:03.744Z,99.93
2023-02-06T04:05:03.766Z,99.93
2023-02-06T04:06:03.972Z,99.93
2023-02-06T04:07:03.725Z,99.83
2023-02-06T04:08:03.742Z,99.88
2023-02-06T04:09:03.717Z,99.88
2023-02-06T04:10:03.684Z,99.77
2023-02-06T04:11:03.684Z,99.77
2023-02-06T04:12:03.664Z,99.77
2023-02-06T04:13:03.663Z,99.77
2023-02-06T04:14:03.677Z,99.66
2023-02-06T04:15:03.645Z,99.56
2023-02-06T04:16:03.654Z,99.56
2023-02-06T04:17:03.625Z,99.56
2023-02-06T04:18:05.181Z,99.56
2023-02-06T04:19:03.638Z,99.56
2023-02-06T04:20:03.590Z,99.56
2023-02-06T04:21:03.576Z,99.56
2023-02-06T04:22:03.556Z,99.56
2023-02-06T04:23:03.557Z,99.56
2023-02-06T04:24:03.567Z,99.61
2023-02-06T04:25:03.547Z,99.61
2023-02-06T04:26:03.546Z,99.71
2023-02-06T04:27:03.516Z,99.71
2023-02-06T04:28:03.599Z,99.82
2023-02-06T04:29:03.508Z,99.82
2023-02-06T04:30:03.478Z,99.82
2023-02-06T04:31:03.563Z,99.71
2023-02-06T04:32:03.508Z,99.82
2023-02-06T04:33:03.446Z,99.86
2023-02-06T04:34:03.537Z,99.86
2023-02-06T04:35:03.431Z,99.86
2023-02-06T04:36:03.439Z,99.71
2023-02-06T04:37:03.417Z,99.71
2023-02-06T04:38:03.427Z,99.71
2023-02-06T04:39:03.404Z,99.71
2023-02-06T04:40:03.385Z,99.92
2023-02-06T04:41:03.460Z,99.86
2023-02-06T04:42:03.355Z,99.96
2023-02-06T04:43:03.360Z,99.96
2023-02-06T04:44:03.375Z,99.96
2023-02-06T04:45:03.324Z,99.96
2023-02-06T04:46:03.366Z,99.96
2023-02-06T04:47:03.330Z,99.86
2023-02-06T04:48:03.305Z,99.86
2023-02-06T04:49:03.290Z,99.96
2023-02-06T04:50:03.303Z,99.96
2023-02-06T04:51:03.258Z,99.96
2023-02-06T04:52:03.282Z,99.96
2023-02-06T04:53:03.296Z,99.96
2023-02-06T04:54:03.273Z,99.96
2023-02-06T04:55:03.232Z,99.99
2023-02-06T04:56:03.199Z,99.99
2023-02-06T04:57:03.197Z,99.96
2023-02-06T04:58:03.189Z,99.99
2023-02-06T04:59:03.439Z,99.96
2023-02-06T05:00:03.337Z,99.96
2023-02-06T05:01:03.164Z,99.96
2023-02-06T05:02:03.139Z,99.99
2023-02-06T05:03:03.135Z,99.99
2023-02-06T05:04:03.273Z,99.99
2023-02-06T05:05:03.143Z,99.99
2023-02-06T05:06:03.156Z,99.99
2023-02-06T05:07:05.438Z,99.99
2023-02-06T05:08:03.135Z,99.99
2023-02-06T05:09:03.071Z,99.99
2023-02-06T05:10:03.069Z,99.99
2023-02-06T05:11:03.062Z,99.99
2023-02-06T05:12:03.081Z,99.99
2023-02-06T05:13:03.028Z,99.99
2023-02-06T05:14:03.030Z,99.99
2023-02-06T05:15:03.372Z,99.99
2023-02-06T05:16:03.017Z,99.99
2023-02-06T05:17:02.980Z,99.99
2023-02-06T05:18:03.004Z,99.99
2023-02-06T05:19:02.959Z,99.99
2023-02-06T05:20:02.942Z,99.99
2023-02-06T05:21:02.930Z,99.99
2023-02-06T05:22:02.943Z,99.99
2023-02-06T05:23:02.949Z,99.99
2023-02-06T05:24:03.150Z,99.99
2023-02-06T05:25:02.919Z,99.99
2023-02-06T05:26:03.269Z,99.99
2023-02-06T05:27:02.873Z,99.99
2023-02-06T05:28:03.000Z,99.99
2023-02-06T05:29:02.850Z,99.99
2023-02-06T05:30:02.858Z,99.99
2023-02-06T05:31:03.098Z,99.99
2023-02-06T05:32:02.828Z,99.99
2023-02-06T05:33:02.819Z,99.99
2023-02-06T05:34:02.841Z,99.99
2023-02-06T05:35:02.790Z,99.99
2023-02-06T05:36:02.805Z,99.99
2023-02-06T05:37:02.764Z,99.99
2023-02-06T05:38:02.793Z,99.99
2023-02-06T05:39:03.395Z,99.99
2023-02-06T05:40:02.745Z,99.99
2023-02-06T05:41:02.733Z,99.99
2023-02-06T05:42:02.748Z,99.99
2023-02-06T05:43:02.706Z,99.99
2023-02-06T05:44:02.723Z,99.99
2023-02-06T05:45:02.706Z,99.99
2023-02-06T05:46:02.728Z,99.99
2023-02-06T05:47:02.664Z,99.99
2023-02-06T05:48:02.684Z,99.99
2023-02-06T05:49:02.661Z,99.99
2023-02-06T05:50:02.647Z,99.99
2023-02-06T05:51:02.658Z,99.99
2023-02-06T05:52:02.660Z,99.99
2023-02-06T05:53:02.603Z,99.99
2023-02-06T05:54:02.629Z,99.99
2023-02-06T05:55:02.570Z,99.99
2023-02-06T05:56:02.587Z,99.99
2023-02-06T05:57:02.575Z,99.99
2023-02-06T05:58:02.744Z,99.99
2023-02-06T05:59:02.544Z,99.99
2023-02-06T06:00:02.586Z,99.99
2023-02-06T06:01:02.525Z,99.99
2023-02-06T06:02:02.536Z,99.99
2023-02-06T06:03:02.497Z,99.99
2023-02-06T06:04:02.556Z,99.99
2023-02-06T06:05:02.633Z,99.99
2023-02-06T06:06:02.517Z,99.99
2023-02-06T06:07:02.463Z,99.99
2023-02-06T06:08:02.462Z,99.99
2023-02-06T06:09:02.448Z,99.99
2023-02-06T06:10:02.460Z,99.99
2023-02-06T06:11:02.437Z,99.99
2023-02-06T06:12:02.419Z,99.99
2023-02-06T06:13:02.423Z,99.99
2023-02-06T06:14:02.414Z,99.99
2023-02-06T06:15:02.400Z,99.99
2023-02-06T06:16:02.427Z,99.99
2023-02-06T06:17:02.468Z,99.99
2023-02-06T06:18:02.372Z,99.99
2023-02-06T06:19:02.341Z,99.99
2023-02-06T06:20:02.325Z,99.99
2023-02-06T06:21:02.311Z,99.99
2023-02-06T06:22:02.367Z,99.99
2023-02-06T06:23:02.294Z,99.99
2023-02-06T06:24:02.335Z,99.99
2023-02-06T06:25:02.294Z,99.99
2023-02-06T06:26:02.321Z,99.99
2023-02-06T06:27:02.249Z,99.99
2023-02-06T06:28:02.368Z,99.99
2023-02-06T06:29:02.232Z,99.99
2023-02-06T06:30:02.282Z,99.99
2023-02-06T06:31:02.279Z,99.99
2023-02-06T06:32:02.201Z,99.99
2023-02-06T06:33:02.198Z,99.99
2023-02-06T06:34:02.220Z,99.99
2023-02-06T06:35:02.159Z,99.99
2023-02-06T06:36:02.146Z,99.99
2023-02-06T06:37:02.137Z,99.99
2023-02-06T06:38:02.142Z,99.99
2023-02-06T06:39:02.134Z,99.99
2023-02-06T06:40:02.260Z,99.99
2023-02-06T06:41:02.105Z,99.99
2023-02-06T06:42:02.087Z,99.99
2023-02-06T06:43:02.078Z,99.99
2023-02-06T06:44:02.217Z,99.99
2023-02-06T06:45:02.048Z,99.99
2023-02-06T06:46:02.139Z,99.99
2023-02-06T06:47:02.051Z,99.99
2023-02-06T06:48:02.031Z,99.99
2023-02-06T06:49:02.063Z,99.99
2023-02-06T06:50:02.047Z,99.99
2023-02-06T06:51:02.028Z,99.99
2023-02-06T06:52:02.040Z,99.99
2023-02-06T06:53:01.986Z,99.99
2023-02-06T06:54:01.982Z,99.99
2023-02-06T06:55:01.952Z,99.99
2023-02-06T06:56:01.951Z,99.99
2023-02-06T06:57:01.958Z,99.99
2023-02-06T06:58:01.989Z,99.99
2023-02-06T06:59:01.935Z,99.99
2023-02-06T07:00:01.940Z,99.99
2023-02-06T07:01:01.919Z,99.99
2023-02-06T07:02:01.907Z,99.99
2023-02-06T07:03:01.914Z,99.99
2023-02-06T07:04:01.919Z,99.99
2023-02-06T07:05:01.909Z,99.99
2023-02-06T07:06:01.852Z,99.99
2023-02-06T07:07:01.883Z,99.99
2023-02-06T07:08:01.832Z,99.99
2023-02-06T07:09:01.820Z,99.99
2023-02-06T07:10:01.832Z,99.99
2023-02-06T07:11:01.777Z,99.99
2023-02-06T07:12:01.774Z,99.99
2023-02-06T07:13:01.766Z,99.99
2023-02-06T07:14:01.786Z,99.99
2023-02-06T07:15:01.754Z,99.99
2023-02-06T07:16:01.744Z,99.99
2023-02-06T07:17:01.795Z,99.99
2023-02-06T07:18:01.742Z,99.99
2023-02-06T07:19:01.710Z,99.99
2023-02-06T07:20:01.678Z,99.99
2023-02-06T07:21:01.672Z,99.99
2023-02-06T07:22:01.661Z,99.99
2023-02-06T07:23:01.659Z,99.99
2023-02-06T07:24:01.650Z,99.99
2023-02-06T07:25:01.630Z,99.99
2023-02-06T07:26:01.632Z,99.99
2023-02-06T07:27:01.632Z,99.99
2023-02-06T07:28:01.670Z,99.99
2023-02-06T07:29:01.590Z,99.99
2023-02-06T07:30:01.630Z,99.99
2023-02-06T07:31:01.629Z,99.99
2023-02-06T07:32:01.618Z,99.99
2023-02-06T07:33:01.551Z,99.99
2023-02-06T07:34:01.561Z,99.99
2023-02-06T07:35:01.545Z,99.99
2023-02-06T07:36:03.704Z,99.99
2023-02-06T07:37:01.512Z,99.99
2023-02-06T07:38:01.494Z,99.99
2023-02-06T07:39:01.592Z,99.99
2023-02-06T07:40:01.527Z,99.99
2023-02-06T07:41:01.520Z,99.99
2023-02-06T07:42:01.504Z,99.99
2023-02-06T07:43:01.485Z,99.99
2023-02-06T07:44:01.460Z,99.99
2023-02-06T07:45:01.421Z,99.99
2023-02-06T07:46:01.461Z,99.99
2023-02-06T07:47:01.401Z,99.99
2023-02-06T07:48:01.401Z,99.99
2023-02-06T07:49:01.404Z,99.99
2023-02-06T07:50:01.403Z,99.99
2023-02-06T07:51:01.373Z,99.99
2023-02-06T07:52:01.342Z,99.99
2023-02-06T07:53:01.332Z,99.99
2023-02-06T07:54:01.350Z,99.99
2023-02-06T07:55:01.324Z,99.99
2023-02-06T07:56:01.301Z,99.99
2023-02-06T07:57:01.305Z,99.99
2023-02-06T07:58:01.276Z,99.99
2023-02-06T07:59:01.285Z,99.99
2023-02-06T08:00:01.271Z,99.99
2023-02-06T08:01:01.273Z,99.99
2023-02-06T08:02:01.246Z,99.99
2023-02-06T08:03:01.233Z,99.99
2023-02-06T08:04:01.210Z,99.99
2023-02-06T08:05:01.210Z,99.99
2023-02-06T08:06:01.192Z,99.99
2023-02-06T08:07:01.195Z,99.99
2023-02-06T08:08:01.180Z,99.99
2023-02-06T08:09:01.202Z,99.99
2023-02-06T08:10:01.190Z,99.99
2023-02-06T08:11:01.151Z,99.99
2023-02-06T08:12:01.135Z,99.99
2023-02-06T08:13:01.120Z,99.99
2023-02-06T08:14:01.135Z,99.99
2023-02-06T08:15:01.092Z,99.99
2023-02-06T08:16:01.083Z,99.99
2023-02-06T08:17:01.097Z,99.99
2023-02-06T08:18:01.066Z,99.99
2023-02-06T08:19:01.065Z,99.99
2023-02-06T08:20:01.034Z,99.99
2023-02-06T08:21:01.043Z,99.99
2023-02-06T08:22:01.014Z,99.99
2023-02-06T08:23:01.012Z,99.99
2023-02-06T08:24:01.030Z,99.99
2023-02-06T08:25:01.021Z,99.99
2023-02-06T08:26:00.973Z,99.99
2023-02-06T08:27:00.974Z,99.99
2023-02-06T08:28:00.977Z,99.99
2023-02-06T08:29:00.943Z,99.99
2023-02-06T08:30:00.946Z,99.99
2023-02-06T08:31:01.024Z,99.99
2023-02-06T08:32:00.903Z,99.99
2023-02-06T08:33:01.232Z,99.99
2023-02-06T08:34:00.883Z,99.99
2023-02-06T08:35:00.901Z,99.99
2023-02-06T08:36:00.864Z,99.99
2023-02-06T08:37:00.862Z,99.99
2023-02-06T08:38:00.860Z,99.99
2023-02-06T08:39:00.888Z,99.99
2023-02-06T08:40:00.816Z,99.99
2023-02-06T08:41:00.820Z,99.99
2023-02-06T08:42:00.813Z,99.99
2023-02-06T08:43:00.787Z,99.99
2023-02-06T08:44:00.801Z,99.99
2023-02-06T08:45:00.781Z,99.99
2023-02-06T08:46:00.787Z,99.99
2023-02-06T08:47:09.705Z,99.99
2023-02-06T08:48:01.737Z,99.99
2023-02-06T08:49:00.738Z,99.99
2023-02-06T08:50:03.247Z,99.99
2023-02-06T08:51:00.706Z,99.99
2023-02-06T08:52:00.685Z,99.99
2023-02-06T08:53:00.676Z,99.99
2023-02-06T08:54:00.698Z,99.99
2023-02-06T08:55:00.666Z,99.99
2023-02-06T08:56:00.647Z,99.99
2023-02-06T08:57:00.638Z,99.99
2023-02-06T08:58:00.627Z,99.99
2023-02-06T08:59:00.724Z,99.99
2023-02-06T09:00:00.613Z,99.99
2023-02-06T09:01:00.602Z,99.99
2023-02-06T09:02:00.588Z,99.99
2023-02-06T09:03:00.568Z,99.99
2023-02-06T09:04:00.574Z,99.99
2023-02-06T09:05:00.555Z,99.93
2023-02-06T09:06:09.319Z,99.93
2023-02-06T09:07:01.518Z,99.93
2023-02-06T09:08:00.525Z,99.82
2023-02-06T09:09:00.531Z,99.72
2023-02-06T09:10:00.501Z,99.62
2023-02-06T09:11:00.506Z,99.62
2023-02-06T09:12:00.489Z,99.57
2023-02-06T09:13:00.462Z,99.57
2023-02-06T09:14:00.476Z,99.57
2023-02-06T09:15:00.438Z,99.67
2023-02-06T09:16:00.483Z,99.77
2023-02-06T09:17:00.418Z,99.63
2023-02-06T09:18:00.454Z,99.63
2023-02-06T09:19:00.403Z,99.63
2023-02-06T09:20:00.405Z,99.73
2023-02-06T09:21:00.385Z,99.58
2023-02-06T09:22:00.376Z,99.32
2023-02-06T09:23:00.347Z,99.27
2023-02-06T09:24:00.423Z,99.16
2023-02-06T09:25:00.324Z,98.96
2023-02-06T09:26:00.315Z,98.75
2023-02-06T09:27:01.086Z,98.75
2023-02-06T09:28:00.332Z,98.71
2023-02-06T09:29:00.293Z,98.60
2023-02-06T09:30:00.271Z,98.29
2023-02-06T09:31:00.373Z,97.98
2023-02-06T09:32:00.255Z,97.88
2023-02-06T09:33:00.232Z,97.77
2023-02-06T09:34:00.245Z,97.67
2023-02-06T09:35:00.223Z,97.56
2023-02-06T09:36:00.217Z,97.31
2023-02-06T09:37:00.204Z,97.00
2023-02-06T09:38:00.193Z,97.00
2023-02-06T09:39:00.184Z,97.00
2023-02-06T09:40:00.164Z,96.69
2023-02-06T09:41:00.152Z,96.79
2023-02-06T09:42:00.189Z,96.58
2023-02-06T09:43:00.123Z,96.44
2023-02-06T09:44:00.142Z,96.27
2023-02-06T09:45:00.128Z,96.06
2023-02-06T09:46:00.119Z,95.96
2023-02-06T09:47:00.105Z,96.17
2023-02-06T09:48:00.090Z,96.27
2023-02-06T09:49:00.086Z,96.27
2023-02-06T09:50:00.085Z,96.48
2023-02-06T09:51:00.064Z,96.27
2023-02-06T09:52:00.036Z,95.75
2023-02-06T09:53:00.018Z,95.75
2023-02-06T09:54:00.028Z,95.86
2023-02-06T09:54:59.996Z,95.96
2023-02-06T09:55:59.987Z,95.96
2023-02-06T09:56:59.976Z,95.75
2023-02-06T09:57:59.966Z,95.86
2023-02-06T09:58:59.977Z,95.92
2023-02-06T09:59:59.948Z,95.71
2023-02-06T10:00:59.924Z,95.61
2023-02-06T10:01:59.982Z,95.67
2023-02-06T10:02:59.906Z,95.46
2023-02-06T10:03:59.934Z,94.42
2023-02-06T10:04:59.886Z,94.21
2023-02-06T10:05:59.888Z,94.21
2023-02-06T10:06:59.883Z,93.49
2023-02-06T10:07:59.869Z,93.59
2023-02-06T10:09:00.031Z,93.80
2023-02-06T10:09:59.857Z,94.01
2023-02-06T10:10:59.819Z,93.80
2023-02-06T10:11:59.929Z,92.97
2023-02-06T10:12:59.817Z,92.66
2023-02-06T10:13:59.814Z,92.97
2023-02-06T10:14:59.911Z,93.28
2023-02-06T10:15:59.801Z,93.38
2023-02-06T10:16:59.872Z,93.07
2023-02-06T10:17:59.751Z,93.38
2023-02-06T10:18:59.775Z,92.97
2023-02-06T10:19:59.718Z,92.45
2023-02-06T10:20:59.788Z,92.45
2023-02-06T10:21:59.736Z,92.82
2023-02-06T10:22:59.792Z,92.93
2023-02-06T10:23:59.740Z,93.02
2023-02-06T10:24:59.689Z,92.93
2023-02-06T10:25:59.664Z,92.82
2023-02-06T10:26:59.661Z,92.20
2023-02-06T10:27:59.655Z,92.10
2023-02-06T10:28:59.666Z,92.10
2023-02-06T10:29:59.616Z,91.78
2023-02-06T10:30:59.675Z,91.58
2023-02-06T10:31:59.636Z,91.41
2023-02-06T10:32:59.595Z,91.68
2023-02-06T10:33:59.592Z,91.78
2023-02-06T10:34:59.566Z,91.68
2023-02-06T10:35:59.586Z,91.68
2023-02-06T10:36:59.545Z,91.58
2023-02-06T10:37:59.529Z,91.27
2023-02-06T10:38:59.547Z,91.10
2023-02-06T10:39:59.509Z,90.85
2023-02-06T10:40:59.522Z,91.16
2023-02-06T10:41:59.488Z,90.64
2023-02-06T10:42:59.477Z,90.54
2023-02-06T10:43:59.549Z,90.44
2023-02-06T10:45:13.094Z,90.70
2023-02-06T10:46:00.584Z,90.50
2023-02-06T10:46:59.500Z,89.98
2023-02-06T10:47:59.459Z,89.15
2023-02-06T10:48:59.472Z,88.63
2023-02-06T10:49:59.399Z,89.04
2023-02-06T10:50:59.393Z,89.36
2023-02-06T10:51:59.421Z,89.42
2023-02-06T10:52:59.413Z,89.94
2023-02-06T10:53:59.391Z,90.10
2023-02-06T10:54:59.357Z,89.42
2023-02-06T10:55:59.346Z,89.31
2023-02-06T10:56:59.332Z,89.11
2023-02-06T10:57:59.312Z,89.73
2023-02-06T10:58:59.323Z,88.96
2023-02-06T10:59:59.294Z,88.28
2023-02-06T11:00:59.323Z,88.07
2023-02-06T11:02:00.603Z,88.28
2023-02-06T11:03:07.242Z,88.28
2023-02-06T11:04:00.256Z,87.97
2023-02-06T11:04:59.254Z,88.24
2023-02-06T11:05:59.233Z,88.30
2023-02-06T11:06:59.255Z,87.57
2023-02-06T11:07:59.207Z,87.30
2023-02-06T11:08:59.247Z,87.30
2023-02-06T11:09:59.188Z,87.68
2023-02-06T11:10:59.182Z,87.57
2023-02-06T11:11:59.200Z,86.54
2023-02-06T11:12:59.154Z,86.23
2023-02-06T11:13:59.152Z,86.23
2023-02-06T11:14:59.157Z,86.96
2023-02-06T11:15:59.142Z,87.27
2023-02-06T11:16:59.192Z,86.60
2023-02-06T11:17:59.096Z,86.40
2023-02-06T11:18:59.086Z,85.68
2023-02-06T11:19:59.087Z,85.11
2023-02-06T11:20:59.072Z,85.22
2023-02-06T11:21:59.050Z,84.70
2023-02-06T11:22:59.047Z,83.91
2023-02-06T11:23:59.030Z,84.43
2023-02-06T11:24:59.028Z,84.64
2023-02-06T11:25:59.012Z,84.22
2023-02-06T11:26:59.002Z,83.91
2023-02-06T11:27:59.037Z,84.60
2023-02-06T11:28:59.005Z,83.94
2023-02-06T11:29:58.962Z,83.84
2023-02-06T11:30:58.990Z,84.21
2023-02-06T11:31:58.948Z,83.59
2023-02-06T11:33:04.317Z,83.39
2023-02-06T11:33:59.933Z,83.70
2023-02-06T11:34:58.918Z,83.32
2023-02-06T11:35:58.906Z,83.01
2023-02-06T11:36:58.897Z,83.18
2023-02-06T11:37:58.874Z,82.87
2023-02-06T11:38:58.882Z,81.32
2023-02-06T11:39:58.863Z,81.18
2023-02-06T11:40:58.844Z,81.07
2023-02-06T11:41:58.831Z,80.66
2023-02-06T11:42:58.826Z,80.04
2023-02-06T11:43:58.839Z,80.87
2023-02-06T11:44:58.805Z,80.25
2023-02-06T11:45:58.921Z,79.83
2023-02-06T11:46:58.777Z,79.63
2023-02-06T11:47:58.768Z,79.18
2023-02-06T11:48:58.778Z,79.38
2023-02-06T11:49:58.781Z,79.69
2023-02-06T11:50:58.737Z,79.45
2023-02-06T11:51:58.717Z,80.04
2023-02-06T11:52:58.760Z,79.27
2023-02-06T11:53:58.730Z,79.07
2023-02-06T11:54:58.689Z,78.72
2023-02-06T11:55:58.679Z,78.72
2023-02-06T11:56:58.675Z,78.28
2023-02-06T11:57:58.660Z,77.45
2023-02-06T11:58:58.661Z,77.25
2023-02-06T11:59:58.651Z,77.14
2023-02-06T12:00:58.626Z,76.83
2023-02-06T12:01:58.614Z,76.73
2023-02-06T12:02:58.605Z,77.66
2023-02-06T12:03:58.607Z,77.04
2023-02-06T12:04:58.595Z,75.15
2023-02-06T12:05:59.895Z,74.95
2023-02-06T12:06:58.555Z,73.61
2023-02-06T12:07:58.556Z,73.30
2023-02-06T12:08:58.630Z,73.61
2023-02-06T12:09:58.528Z,73.02
2023-02-06T12:10:58.506Z,73.85
2023-02-06T12:11:58.516Z,73.85
2023-02-06T12:12:58.507Z,73.95
2023-02-06T12:13:58.513Z,74.08
2023-02-06T12:14:58.491Z,73.33
2023-02-06T12:15:58.478Z,73.57
2023-02-06T12:16:58.460Z,74.40
2023-02-06T12:17:58.442Z,75.01
2023-02-06T12:18:58.433Z,74.02
2023-02-06T12:19:58.419Z,74.36
2023-02-06T12:20:58.409Z,74.15
2023-02-06T12:21:58.428Z,74.91
2023-02-06T12:22:58.389Z,75.43
2023-02-06T12:23:58.392Z,75.98
2023-02-06T12:24:58.403Z,76.29
2023-02-06T12:25:58.488Z,76.08
2023-02-06T12:26:58.399Z,77.22
2023-02-06T12:27:58.344Z,77.32
2023-02-06T12:28:58.314Z,77.94
2023-02-06T12:29:58.334Z,78.77
2023-02-06T12:30:58.357Z,78.56
2023-02-06T12:31:58.440Z,77.84
2023-02-06T12:32:58.272Z,76.70
2023-02-06T12:33:58.267Z,78.11
2023-02-06T12:34:58.251Z,77.84
2023-02-06T12:35:58.242Z,78.05
2023-02-06T12:36:58.212Z,77.53
2023-02-06T12:37:58.215Z,76.64
2023-02-06T12:38:58.206Z,77.36
2023-02-06T12:39:58.198Z,77.39
2023-02-06T12:40:58.179Z,76.67
2023-02-06T12:41:58.178Z,77.50
2023-02-06T12:42:58.159Z,78.11
2023-02-06T12:43:58.150Z,78.53
2023-02-06T12:44:58.146Z,78.53
2023-02-06T12:45:58.303Z,78.32
2023-02-06T12:46:58.113Z,78.53
2023-02-06T12:47:58.113Z,78.74
2023-02-06T12:48:58.082Z,78.59
2023-02-06T12:49:58.093Z,78.28
2023-02-06T12:50:58.062Z,78.94
2023-02-06T12:51:58.053Z,77.91